Time,TemperatureF,DewpointF,PressureIn,WindDirection,WindDirectionDegrees,WindSpeedMPH,WindSpeedGustMPH,Humidity,HourlyPrecipIn,Conditions,Clouds,dailyrainin,SoftwareType,DateUTC
2013-03-05 00:01:00,61.0,27.0,30.06,North,0,0.0,0.0,27,-99.99,,,-99.99,,2013-03-05 07:01:00,
2013-03-05 00:11:00,61.0,27.0,30.06,North,0,0.0,0.0,27,-99.99,,,-99.99,,2013-03-05 07:11:00,
2013-03-05 00:22:00,60.0,28.0,30.07,North,0,0.0,0.0,29,-99.99,,,-99.99,,2013-03-05 07:22:00,
2013-03-05 00:31:00,59.0,28.0,30.08,North,0,0.0,0.0,31,-99.99,,,-99.99,,2013-03-05 07:31:00,
2013-03-05 00:41:00,59.0,28.0,30.08,North,0,0.0,0.0,31,-99.99,,,-99.99,,2013-03-05 07:41:00,
2013-03-05 00:52:00,57.0,28.0,30.08,North,0,0.0,0.0,33,-99.99,,,-99.99,,2013-03-05 07:52:00,
2013-03-05 01:02:00,57.0,29.0,30.09,North,0,0.0,0.0,34,-99.99,,,-99.99,,2013-03-05 08:02:00,
2013-03-05 01:11:00,57.0,29.0,30.09,North,0,0.0,0.0,34,-99.99,,,-99.99,,2013-03-05 08:11:00,
2013-03-05 01:21:00,57.0,29.0,30.09,North,0,0.0,0.0,34,-99.99,,,-99.99,,2013-03-05 08:21:00,
2013-03-05 01:31:00,56.0,28.0,30.11,North,0,0.0,0.0,34,-99.99,,,-99.99,,2013-03-05 08:31:00,
2013-03-05 01:41:00,56.0,28.0,30.11,North,0,0.0,0.0,34,-99.99,,,-99.99,,2013-03-05 08:41:00,
2013-03-05 01:52:00,55.0,28.0,30.14,North,0,0.0,0.0,35,-99.99,,,-99.99,,2013-03-05 08:52:00,
2013-03-05 02:01:00,55.0,29.0,30.14,North,0,0.0,0.0,36,-99.99,,,-99.99,,2013-03-05 09:01:00,
2013-03-05 02:11:00,55.0,29.0,30.14,North,0,0.0,0.0,36,-99.99,,,-99.99,,2013-03-05 09:11:00,
2013-03-05 02:21:00,54.0,29.0,30.14,North,0,0.0,0.0,38,-99.99,,,-99.99,,2013-03-05 09:21:00,
2013-03-05 02:31:00,53.0,29.0,30.14,North,0,0.0,0.0,39,-99.99,,,-99.99,,2013-03-05 09:31:00,
2013-03-05 02:42:00,53.0,29.0,30.14,North,0,0.0,0.0,39,-99.99,,,-99.99,,2013-03-05 09:42:00,
2013-03-05 02:52:00,52.0,30.0,30.14,North,0,0.0,0.0,42,-99.99,,,-99.99,,2013-03-05 09:52:00,
2013-03-05 03:01:00,51.0,29.0,30.14,North,0,0.0,0.0,43,-99.99,,,-99.99,,2013-03-05 10:01:00,
2013-03-05 03:11:00,51.0,29.0,30.14,North,0,0.0,0.0,43,-99.99,,,-99.99,,2013-03-05 10:11:00,
2013-03-05 03:21:00,50.0,28.0,30.14,North,0,0.0,0.0,43,-99.99,,,-99.99,,2013-03-05 10:21:00,
2013-03-05 03:32:00,50.0,29.0,30.16,NNE,23,0.0,1.0,44,-99.99,,,-99.99,,2013-03-05 10:32:00,
2013-03-05 03:42:00,50.0,29.0,30.16,NNE,23,0.0,1.0,44,-99.99,,,-99.99,,2013-03-05 10:42:00,
2013-03-05 03:52:00,51.0,29.0,30.18,ENE,70,6.0,10.0,42,-99.99,,,-99.99,,2013-03-05 10:52:00,
2013-03-05 04:01:00,51.0,31.0,30.19,ENE,75,5.0,9.0,46,-99.99,,,-99.99,,2013-03-05 11:01:00,
2013-03-05 04:11:00,51.0,31.0,30.19,ENE,75,5.0,9.0,46,-99.99,,,-99.99,,2013-03-05 11:11:00,
2013-03-05 04:22:00,50.0,34.0,30.19,ENE,72,7.0,11.0,54,-99.99,,,-99.99,,2013-03-05 11:22:00,
2013-03-05 04:32:00,49.0,34.0,30.20,NE,42,6.0,9.0,57,-99.99,,,-99.99,,2013-03-05 11:32:00,
2013-03-05 04:42:00,49.0,34.0,30.20,NE,42,6.0,9.0,57,-99.99,,,-99.99,,2013-03-05 11:42:00,
2013-03-05 04:52:00,48.0,34.0,30.21,NE,52,4.0,11.0,57,-99.99,,,-99.99,,2013-03-05 11:52:00,
2013-03-05 05:02:00,48.0,34.0,30.23,South,169,0.0,2.0,58,-99.99,,,-99.99,,2013-03-05 12:02:00,
2013-03-05 05:11:00,48.0,34.0,30.23,South,169,0.0,2.0,58,-99.99,,,-99.99,,2013-03-05 12:11:00,
2013-03-05 05:22:00,47.0,33.0,30.25,ESE,120,2.0,11.0,58,-99.99,,,-99.99,,2013-03-05 12:22:00,
2013-03-05 05:32:00,46.0,32.0,30.25,ESE,104,4.0,9.0,58,-99.99,,,-99.99,,2013-03-05 12:32:00,
2013-03-05 05:42:00,46.0,32.0,30.25,ESE,104,4.0,9.0,58,-99.99,,,-99.99,,2013-03-05 12:42:00,
2013-03-05 05:52:00,45.0,32.0,30.27,ENE,73,4.0,8.0,61,-99.99,,,-99.99,,2013-03-05 12:52:00,
2013-03-05 06:02:00,44.0,31.0,30.28,SE,124,3.0,7.0,61,-99.99,,,-99.99,,2013-03-05 13:02:00,
2013-03-05 06:11:00,44.0,31.0,30.28,SE,124,3.0,7.0,61,-99.99,,,-99.99,,2013-03-05 13:11:00,
2013-03-05 06:21:00,44.0,31.0,30.29,SE,134,4.0,9.0,61,-99.99,,,-99.99,,2013-03-05 13:21:00,
2013-03-05 06:32:00,44.0,31.0,30.30,SE,128,7.0,14.0,61,-99.99,,,-99.99,,2013-03-05 13:32:00,
2013-03-05 06:42:00,44.0,31.0,30.30,SE,128,7.0,14.0,61,-99.99,,,-99.99,,2013-03-05 13:42:00,
2013-03-05 06:52:00,44.0,31.0,30.31,SE,131,6.0,11.0,61,-99.99,,,-99.99,,2013-03-05 13:52:00,
2013-03-05 07:02:00,44.0,31.0,30.32,SE,131,5.0,11.0,61,-99.99,,,-99.99,,2013-03-05 14:02:00,
2013-03-05 07:11:00,44.0,31.0,30.32,SE,131,5.0,11.0,61,-99.99,,,-99.99,,2013-03-05 14:11:00,
2013-03-05 07:21:00,43.0,31.0,30.33,ESE,113,6.0,10.0,62,-99.99,,,-99.99,,2013-03-05 14:21:00,
2013-03-05 07:32:00,43.0,31.0,30.34,ESE,114,5.0,10.0,62,-99.99,,,-99.99,,2013-03-05 14:32:00,
2013-03-05 07:42:00,43.0,31.0,30.34,ESE,114,5.0,10.0,62,-99.99,,,-99.99,,2013-03-05 14:42:00,
2013-03-05 07:52:00,43.0,31.0,30.35,NNE,31,9.0,19.0,62,-99.99,,,-99.99,,2013-03-05 14:52:00,
2013-03-05 08:01:00,43.0,30.0,30.36,ENE,63,8.0,16.0,61,-99.99,,,-99.99,,2013-03-05 15:01:00,
2013-03-05 08:11:00,43.0,30.0,30.36,ENE,63,8.0,16.0,61,-99.99,,,-99.99,,2013-03-05 15:11:00,
2013-03-05 08:21:00,44.0,31.0,30.37,ESE,104,7.0,14.0,60,-99.99,,,-99.99,,2013-03-05 15:21:00,
2013-03-05 08:32:00,45.0,32.0,30.37,East,82,7.0,13.0,59,-99.99,,,-99.99,,2013-03-05 15:32:00,
2013-03-05 08:42:00,45.0,32.0,30.37,East,82,7.0,13.0,59,-99.99,,,-99.99,,2013-03-05 15:42:00,
2013-03-05 08:52:00,45.0,31.0,30.37,East,79,10.0,17.0,57,-99.99,,,-99.99,,2013-03-05 15:52:00,
2013-03-05 09:01:00,46.0,31.0,30.37,East,82,8.0,13.0,56,-99.99,,,-99.99,,2013-03-05 16:01:00,
2013-03-05 09:11:00,46.0,31.0,30.37,East,82,8.0,13.0,56,-99.99,,,-99.99,,2013-03-05 16:11:00,
2013-03-05 09:21:00,47.0,31.0,30.38,East,94,10.0,20.0,54,-99.99,,,-99.99,,2013-03-05 16:21:00,
2013-03-05 09:32:00,47.0,31.0,30.38,East,80,10.0,18.0,53,-99.99,,,-99.99,,2013-03-05 16:32:00,
2013-03-05 09:42:00,47.0,31.0,30.38,East,80,10.0,18.0,53,-99.99,,,-99.99,,2013-03-05 16:42:00,
2013-03-05 09:52:00,49.0,32.0,30.37,East,100,9.0,16.0,51,-99.99,,,-99.99,,2013-03-05 16:52:00,
2013-03-05 10:01:00,49.0,31.0,30.37,East,91,7.0,14.0,50,-99.99,,,-99.99,,2013-03-05 17:01:00,
2013-03-05 10:11:00,49.0,31.0,30.37,East,91,7.0,14.0,50,-99.99,,,-99.99,,2013-03-05 17:11:00,
2013-03-05 10:21:00,51.0,32.0,30.37,East,79,8.0,19.0,48,-99.99,,,-99.99,,2013-03-05 17:21:00,
2013-03-05 10:32:00,51.0,31.0,30.36,ENE,62,8.0,14.0,46,-99.99,,,-99.99,,2013-03-05 17:32:00,
2013-03-05 10:41:00,51.0,31.0,30.36,ENE,62,8.0,14.0,46,-99.99,,,-99.99,,2013-03-05 17:41:00,
2013-03-05 10:52:00,53.0,32.0,30.35,ESE,103,8.0,16.0,45,-99.99,,,-99.99,,2013-03-05 17:52:00,
2013-03-05 11:01:00,53.0,32.0,30.35,East,91,8.0,14.0,44,-99.99,,,-99.99,,2013-03-05 18:01:00,
2013-03-05 11:11:00,53.0,32.0,30.35,East,91,8.0,14.0,44,-99.99,,,-99.99,,2013-03-05 18:11:00,
2013-03-05 11:21:00,54.0,32.0,30.35,ESE,120,9.0,18.0,43,-99.99,,,-99.99,,2013-03-05 18:21:00,
2013-03-05 11:32:00,54.0,32.0,30.35,SE,128,8.0,16.0,43,-99.99,,,-99.99,,2013-03-05 18:32:00,
2013-03-05 11:42:00,54.0,32.0,30.35,SE,128,8.0,16.0,43,-99.99,,,-99.99,,2013-03-05 18:42:00,
2013-03-05 11:53:00,55.0,32.0,30.33,SE,129,8.0,16.0,41,-99.99,,,-99.99,,2013-03-05 18:53:00,
2013-03-05 12:01:00,55.0,32.0,30.33,East,100,9.0,19.0,41,-99.99,,,-99.99,,2013-03-05 19:01:00,
2013-03-05 12:11:00,55.0,32.0,30.33,East,100,9.0,19.0,41,-99.99,,,-99.99,,2013-03-05 19:11:00,
2013-03-05 12:21:00,56.0,31.0,30.33,SE,135,9.0,16.0,39,-99.99,,,-99.99,,2013-03-05 19:21:00,
2013-03-05 12:32:00,57.0,32.0,30.32,SE,134,6.0,11.0,39,-99.99,,,-99.99,,2013-03-05 19:32:00,
2013-03-05 12:42:00,57.0,32.0,30.32,SE,134,6.0,11.0,39,-99.99,,,-99.99,,2013-03-05 19:42:00,
2013-03-05 12:52:00,58.0,33.0,30.30,East,94,7.0,13.0,38,-99.99,,,-99.99,,2013-03-05 19:52:00,
2013-03-05 13:01:00,59.0,32.0,30.30,East,94,8.0,16.0,36,-99.99,,,-99.99,,2013-03-05 20:01:00,
2013-03-05 13:11:00,59.0,32.0,30.28,SE,125,7.0,12.0,36,-99.99,,,-99.99,,2013-03-05 20:11:00,
2013-03-05 13:21:00,59.0,32.0,30.28,SE,125,7.0,12.0,36,-99.99,,,-99.99,,2013-03-05 20:21:00,
2013-03-05 13:32:00,60.0,33.0,30.27,East,100,7.0,14.0,36,-99.99,,,-99.99,,2013-03-05 20:32:00,
2013-03-05 13:41:00,60.0,33.0,30.27,East,100,7.0,14.0,36,-99.99,,,-99.99,,2013-03-05 20:41:00,
2013-03-05 13:52:00,61.0,32.0,30.26,SSE,149,8.0,15.0,34,-99.99,,,-99.99,,2013-03-05 20:52:00,
2013-03-05 14:01:00,61.0,32.0,30.25,ESE,103,6.0,13.0,33,-99.99,,,-99.99,,2013-03-05 21:01:00,
2013-03-05 14:11:00,61.0,32.0,30.25,ESE,103,6.0,13.0,33,-99.99,,,-99.99,,2013-03-05 21:11:00,
2013-03-05 14:21:00,62.0,32.0,30.23,SE,129,8.0,19.0,32,-99.99,,,-99.99,,2013-03-05 21:21:00,
2013-03-05 14:31:00,63.0,33.0,30.22,East,94,6.0,12.0,32,-99.99,,,-99.99,,2013-03-05 21:31:00,
2013-03-05 14:42:00,63.0,33.0,30.22,East,94,6.0,12.0,32,-99.99,,,-99.99,,2013-03-05 21:42:00,
2013-03-05 14:52:00,64.0,33.0,30.20,East,83,5.0,12.0,31,-99.99,,,-99.99,,2013-03-05 21:52:00,
2013-03-05 15:01:00,64.0,33.0,30.20,East,82,7.0,13.0,31,-99.99,,,-99.99,,2013-03-05 22:01:00,
2013-03-05 15:11:00,64.0,33.0,30.20,East,82,7.0,13.0,31,-99.99,,,-99.99,,2013-03-05 22:11:00,
2013-03-05 15:21:00,64.0,32.0,30.19,East,98,7.0,14.0,30,-99.99,,,-99.99,,2013-03-05 22:21:00,
2013-03-05 15:32:00,65.0,33.0,30.19,SE,142,6.0,11.0,30,-99.99,,,-99.99,,2013-03-05 22:32:00,
2013-03-05 15:41:00,65.0,33.0,30.19,SE,142,6.0,11.0,30,-99.99,,,-99.99,,2013-03-05 22:41:00,
2013-03-05 15:52:00,65.0,32.0,30.19,ESE,115,7.0,14.0,29,-99.99,,,-99.99,,2013-03-05 22:52:00,
2013-03-05 16:01:00,65.0,31.0,30.18,SSE,160,6.0,11.0,28,-99.99,,,-99.99,,2013-03-05 23:01:00,
2013-03-05 16:11:00,65.0,31.0,30.18,SSE,160,6.0,11.0,28,-99.99,,,-99.99,,2013-03-05 23:11:00,
2013-03-05 16:21:00,65.0,31.0,30.18,SSE,160,6.0,11.0,28,-99.99,,,-99.99,,2013-03-05 23:21:00,
2013-03-05 16:32:00,65.0,31.0,30.18,SSE,160,6.0,11.0,28,-99.99,,,-99.99,,2013-03-05 23:32:00,
2013-03-05 16:53:00,66.0,32.0,30.16,SE,136,7.0,14.0,28,-99.99,,,-99.99,,2013-03-05 23:53:00,
2013-03-05 17:01:00,65.0,32.0,30.16,ESE,105,6.0,12.0,29,-99.99,,,-99.99,,2013-03-06 00:01:00,
2013-03-05 17:11:00,65.0,32.0,30.16,ESE,105,6.0,12.0,29,-99.99,,,-99.99,,2013-03-06 00:11:00,
2013-03-05 17:21:00,65.0,32.0,30.15,ESE,120,8.0,14.0,29,-99.99,,,-99.99,,2013-03-06 00:21:00,
2013-03-05 17:32:00,64.0,31.0,30.15,ESE,105,9.0,17.0,29,-99.99,,,-99.99,,2013-03-06 00:32:00,
2013-03-05 17:41:00,64.0,31.0,30.15,ESE,105,9.0,17.0,29,-99.99,,,-99.99,,2013-03-06 00:41:00,
2013-03-05 17:52:00,63.0,31.0,30.16,ENE,75,8.0,13.0,30,-99.99,,,-99.99,,2013-03-06 00:52:00,
2013-03-05 18:01:00,62.0,31.0,30.16,East,100,7.0,13.0,31,-99.99,,,-99.99,,2013-03-06 01:01:00,
2013-03-05 18:11:00,62.0,31.0,30.16,East,100,7.0,13.0,31,-99.99,,,-99.99,,2013-03-06 01:11:00,
2013-03-05 18:21:00,62.0,31.0,30.17,ESE,103,6.0,10.0,31,-99.99,,,-99.99,,2013-03-06 01:21:00,
2013-03-05 18:32:00,61.0,31.0,30.17,ESE,121,6.0,13.0,32,-99.99,,,-99.99,,2013-03-06 01:32:00,
2013-03-05 18:41:00,61.0,31.0,30.17,ESE,121,6.0,13.0,32,-99.99,,,-99.99,,2013-03-06 01:41:00,
2013-03-05 18:52:00,61.0,32.0,30.18,ESE,118,5.0,12.0,33,-99.99,,,-99.99,,2013-03-06 01:52:00,
2013-03-05 19:01:00,60.0,32.0,30.19,East,79,7.0,13.0,34,-99.99,,,-99.99,,2013-03-06 02:01:00,
2013-03-05 19:11:00,60.0,32.0,30.19,East,79,7.0,13.0,34,-99.99,,,-99.99,,2013-03-06 02:11:00,
2013-03-05 19:22:00,58.0,31.0,30.19,ESE,103,6.0,11.0,35,-99.99,,,-99.99,,2013-03-06 02:22:00,
2013-03-05 19:31:00,58.0,31.0,30.19,East,100,6.0,11.0,36,-99.99,,,-99.99,,2013-03-06 02:31:00,
2013-03-05 19:42:00,58.0,31.0,30.19,East,100,6.0,11.0,36,-99.99,,,-99.99,,2013-03-06 02:42:00,
2013-03-05 19:52:00,57.0,31.0,30.21,East,91,7.0,14.0,37,-99.99,,,-99.99,,2013-03-06 02:52:00,
2013-03-05 20:01:00,56.0,30.0,30.21,East,98,7.0,14.0,37,-99.99,,,-99.99,,2013-03-06 03:01:00,
2013-03-05 20:11:00,56.0,30.0,30.21,East,98,7.0,14.0,37,-99.99,,,-99.99,,2013-03-06 03:11:00,
2013-03-05 20:22:00,55.0,30.0,30.21,ENE,77,8.0,14.0,38,-99.99,,,-99.99,,2013-03-06 03:22:00,
2013-03-05 20:32:00,55.0,31.0,30.22,East,79,8.0,13.0,39,-99.99,,,-99.99,,2013-03-06 03:32:00,
2013-03-05 20:42:00,55.0,31.0,30.22,East,79,8.0,13.0,39,-99.99,,,-99.99,,2013-03-06 03:42:00,
2013-03-05 20:52:00,54.0,30.0,30.23,East,86,8.0,15.0,40,-99.99,,,-99.99,,2013-03-06 03:52:00,
2013-03-05 21:02:00,54.0,30.0,30.22,NE,49,7.0,14.0,40,-99.99,,,-99.99,,2013-03-06 04:02:00,
2013-03-05 21:11:00,54.0,30.0,30.22,NE,49,7.0,14.0,40,-99.99,,,-99.99,,2013-03-06 04:11:00,
2013-03-05 21:21:00,53.0,30.0,30.23,East,82,7.0,11.0,41,-99.99,,,-99.99,,2013-03-06 04:21:00,
2013-03-05 21:32:00,53.0,30.0,30.24,East,84,6.0,14.0,41,-99.99,,,-99.99,,2013-03-06 04:32:00,
2013-03-05 21:41:00,53.0,30.0,30.24,East,84,6.0,14.0,41,-99.99,,,-99.99,,2013-03-06 04:41:00,
2013-03-05 21:52:00,53.0,31.0,30.24,ENE,63,6.0,12.0,42,-99.99,,,-99.99,,2013-03-06 04:52:00,
2013-03-05 22:01:00,52.0,30.0,30.24,ENE,70,5.0,11.0,42,-99.99,,,-99.99,,2013-03-06 05:01:00,
2013-03-05 22:11:00,52.0,30.0,30.24,ESE,104,6.0,11.0,43,-99.99,,,-99.99,,2013-03-06 05:11:00,
2013-03-05 22:22:00,52.0,30.0,30.24,ESE,104,6.0,11.0,43,-99.99,,,-99.99,,2013-03-06 05:22:00,
2013-03-05 22:32:00,52.0,30.0,30.25,East,91,6.0,11.0,43,-99.99,,,-99.99,,2013-03-06 05:32:00,
2013-03-05 22:42:00,52.0,30.0,30.25,East,91,6.0,11.0,43,-99.99,,,-99.99,,2013-03-06 05:42:00,
2013-03-05 22:52:00,52.0,30.0,30.25,ENE,66,4.0,7.0,43,-99.99,,,-99.99,,2013-03-06 05:52:00,
2013-03-05 23:02:00,51.0,29.0,30.26,NE,35,3.0,6.0,43,-99.99,,,-99.99,,2013-03-06 06:02:00,
2013-03-05 23:11:00,51.0,29.0,30.26,NE,35,3.0,6.0,43,-99.99,,,-99.99,,2013-03-06 06:11:00,
2013-03-05 23:22:00,52.0,30.0,30.26,North,0,0.0,0.0,43,-99.99,,,-99.99,,2013-03-06 06:22:00,
2013-03-05 23:32:00,51.0,30.0,30.25,North,0,0.0,0.0,44,-99.99,,,-99.99,,2013-03-06 06:32:00,
2013-03-05 23:42:00,51.0,30.0,30.25,North,0,0.0,0.0,44,-99.99,,,-99.99,,2013-03-06 06:42:00,
2013-03-05 23:52:00,51.0,30.0,30.24,North,0,0.0,0.0,44,-99.99,,,-99.99,,2013-03-06 06:52:00,